createdAt,value
2018-03-19T16:16:36.506Z,2.40
2018-03-19T16:19:05.240Z,18.20
2018-03-19T16:21:35.242Z,17.17
2018-03-19T16:24:05.800Z,11.70
2018-03-19T16:26:35.816Z,4.20
2018-03-19T16:29:06.710Z,6.17
2018-03-19T16:31:35.690Z,1.30
2018-03-19T16:34:04.453Z,1.10
2018-03-19T16:36:33.313Z,1.33
2018-03-19T16:39:02.084Z,1.00
2018-03-19T16:41:31.766Z,1.20
2018-03-19T16:44:00.538Z,0.90
2018-03-19T16:46:29.214Z,0.70
2018-03-19T16:48:58.331Z,0.90
2018-03-19T16:51:27.799Z,1.10
2018-03-19T16:53:57.484Z,0.90
2018-03-19T16:56:26.090Z,1.00
2018-03-19T16:58:54.799Z,0.97
2018-03-19T17:01:24.318Z,1.77
2018-03-19T17:03:53.371Z,1.00
2018-03-19T17:06:22.197Z,2.10
2018-03-19T17:08:50.924Z,1.30
2018-03-19T17:11:19.848Z,1.60
2018-03-19T17:13:48.636Z,3.13
2018-03-19T17:16:17.954Z,3.47
2018-03-19T17:18:48.565Z,2.97
2018-03-19T17:21:19.298Z,4.03
2018-03-19T17:23:49.110Z,2.90
2018-03-19T17:26:22.001Z,2.72
2018-03-19T17:28:51.023Z,3.12
2018-03-19T17:31:20.032Z,3.12
2018-03-19T17:33:50.651Z,2.53
2018-03-19T17:36:20.181Z,1.53
2018-03-19T17:38:49.074Z,1.60
2018-03-19T17:41:19.597Z,1.10
2018-03-19T17:43:49.446Z,3.95
2018-03-19T17:46:19.276Z,1.65
2018-03-19T17:48:48.695Z,3.37
2018-03-19T17:51:18.237Z,2.72
2018-03-19T17:53:47.823Z,5.32
2018-03-19T17:56:17.336Z,6.12
2018-03-19T17:58:46.634Z,4.40
2018-03-19T18:01:17.180Z,3.87
2018-03-19T18:03:46.782Z,3.77
2018-03-19T18:06:16.511Z,8.02
2018-03-19T18:08:47.971Z,9.88
2018-03-19T18:11:18.246Z,8.68
2018-03-19T18:13:48.167Z,7.00
2018-03-19T18:16:19.522Z,5.90
2018-03-19T18:18:49.961Z,4.10
2018-03-19T18:21:19.632Z,9.15
2018-03-19T18:23:48.610Z,4.00
2018-03-19T18:26:18.248Z,2.25
2018-03-19T18:28:47.763Z,2.50
2018-03-19T18:31:16.829Z,2.05
2018-03-19T18:33:47.169Z,2.30
2018-03-19T18:36:17.511Z,2.60
2018-03-19T18:38:47.145Z,2.58
2018-03-19T18:41:16.649Z,3.30
2018-03-19T18:43:46.137Z,4.22
2018-03-19T18:46:15.867Z,3.10
2018-03-19T18:48:45.773Z,2.90
2018-03-19T18:51:15.076Z,2.85
2018-03-19T18:53:45.246Z,2.55
2018-03-19T18:56:14.996Z,3.70
2018-03-19T18:58:45.564Z,2.37
2018-03-19T19:01:16.913Z,5.90
2018-03-19T19:03:47.384Z,8.35
2018-03-19T19:06:18.459Z,3.45
2018-03-19T19:08:48.909Z,2.87
2018-03-19T19:11:18.872Z,3.33
2018-03-19T19:13:48.376Z,3.20
2018-03-19T19:16:17.981Z,5.53
2018-03-19T19:18:48.815Z,6.75
2018-03-19T19:21:19.652Z,4.55
2018-03-19T19:23:49.336Z,4.82
2018-03-19T19:26:19.828Z,4.65
2018-03-19T19:28:49.250Z,4.37
2018-03-19T19:31:18.664Z,5.05
2018-03-19T19:33:48.149Z,14.40
2018-03-19T19:36:17.467Z,29.75
2018-03-19T19:38:47.012Z,29.30
2018-03-19T19:41:17.419Z,24.15
2018-03-19T19:43:48.525Z,11.88
2018-03-19T19:46:18.963Z,12.93
2018-03-19T19:48:49.431Z,6.12
2018-03-19T19:51:19.944Z,5.25
2018-03-19T19:53:51.758Z,4.40
2018-03-19T19:56:21.184Z,5.30
2018-03-19T19:58:50.678Z,22.27
2018-03-19T20:01:20.079Z,14.85
2018-03-19T20:03:50.051Z,11.95
2018-03-19T20:06:19.370Z,10.68
2018-03-19T20:08:48.816Z,5.15
2018-03-19T20:11:18.570Z,6.80
2018-03-19T20:13:48.014Z,7.25
2018-03-19T20:16:17.954Z,10.50
2018-03-19T20:18:47.055Z,4.32
2018-03-19T20:21:16.332Z,3.67
2018-03-19T20:23:46.728Z,3.55
2018-03-19T20:26:16.736Z,4.40
2018-03-19T20:28:46.712Z,4.32
2018-03-19T20:31:16.444Z,3.92
2018-03-19T20:33:45.987Z,3.95
2018-03-19T20:36:16.870Z,3.75
2018-03-19T20:38:45.997Z,3.95
2018-03-19T20:41:15.200Z,4.40
2018-03-19T20:43:44.767Z,8.38
2018-03-19T20:46:13.751Z,7.90
2018-03-19T20:48:42.680Z,7.15
2018-03-19T20:51:11.665Z,4.40
2018-03-19T20:53:41.821Z,9.93
2018-03-19T20:56:10.868Z,6.32
2018-03-19T20:58:40.501Z,7.20
2018-03-19T21:01:10.304Z,3.95
2018-03-19T21:03:40.377Z,3.47
2018-03-19T21:06:11.864Z,4.82
2018-03-19T21:08:42.447Z,15.95
2018-03-19T21:11:13.220Z,22.67
2018-03-19T21:13:42.419Z,22.52
2018-03-19T21:16:11.520Z,27.58
2018-03-19T21:18:40.365Z,23.15
2018-03-19T21:21:09.303Z,17.83
2018-03-19T21:23:40.291Z,17.50
2018-03-19T21:26:10.391Z,15.70
2018-03-19T21:28:40.811Z,11.68
2018-03-19T21:31:09.741Z,9.13
2018-03-19T21:33:38.824Z,10.40
2018-03-19T21:36:09.088Z,11.73
2018-03-19T21:38:38.292Z,11.57
2018-03-19T21:41:06.976Z,10.95
2018-03-19T21:43:35.686Z,10.27
2018-03-19T21:46:04.718Z,10.02
2018-03-19T21:48:35.154Z,12.55
2018-03-19T21:51:04.687Z,10.45
2018-03-19T21:53:34.115Z,10.07
2018-03-19T21:56:03.908Z,10.68
2018-03-19T21:58:33.832Z,10.45
2018-03-19T22:01:02.918Z,13.68
2018-03-19T22:03:31.669Z,13.23
2018-03-19T22:06:02.198Z,12.37
2018-03-19T22:08:30.918Z,12.75
2018-03-19T22:11:00.724Z,13.43
2018-03-19T22:13:29.508Z,13.45
2018-03-19T22:15:58.634Z,13.07
2018-03-19T22:18:27.438Z,6.93
2018-03-19T22:20:56.432Z,5.37
2018-03-19T22:23:26.149Z,5.10
2018-03-19T22:25:55.971Z,4.60
2018-03-19T22:28:24.889Z,4.60
2018-03-19T22:30:53.999Z,4.50
2018-03-19T22:33:22.902Z,4.25
2018-03-19T22:35:52.519Z,6.37
2018-03-19T22:38:21.998Z,5.47
2018-03-19T22:40:50.955Z,3.97
2018-03-19T22:43:19.672Z,4.18
2018-03-19T22:45:49.445Z,7.00
2018-03-19T22:48:18.195Z,5.62
2018-03-19T22:50:48.241Z,4.85
2018-03-19T22:53:18.616Z,6.00
2018-03-19T22:55:47.590Z,5.75
2018-03-19T22:58:16.392Z,5.25
2018-03-19T23:00:45.163Z,5.72
2018-03-19T23:03:13.978Z,7.80
2018-03-19T23:05:42.849Z,7.68
2018-03-19T23:08:12.563Z,7.18
2018-03-19T23:10:42.939Z,8.20
2018-03-19T23:13:11.631Z,8.98
2018-03-19T23:15:40.328Z,10.80
2018-03-19T23:18:08.923Z,11.35
2018-03-19T23:20:38.002Z,7.95
2018-03-19T23:23:07.885Z,6.12
2018-03-19T23:25:36.711Z,5.45
2018-03-19T23:28:06.190Z,5.37
2018-03-19T23:30:36.535Z,5.57
2018-03-19T23:33:05.274Z,4.87
2018-03-19T23:35:34.655Z,5.47
2018-03-19T23:38:04.112Z,6.72
2018-03-19T23:40:32.928Z,5.30
2018-03-19T23:43:02.386Z,8.43
2018-03-19T23:45:31.123Z,5.80
2018-03-19T23:48:00.100Z,5.25
2018-03-19T23:50:29.722Z,7.55
2018-03-19T23:52:59.385Z,5.68
2018-03-19T23:55:28.348Z,5.28
2018-03-19T23:57:58.135Z,5.80
